Observation data for Aspermont on 12/08/2018      Previous  Date       Current Mesonet Observations  Soil Data  Daily Summary Page  Observations in Plain Language
KASR 080600Z 00009KT 01/00 A3029 RMK A01 T00060003  RH  099%=      5-min Rain = 0.01
KASR 080605Z 00009KT 01/00 A3029 RMK A01 T00050002  RH  099%=      5-min Rain = 0
KASR 080610Z 01008KT 01/00 A3029 RMK A01 T00050002  RH  099%=      5-min Rain = 0.01
KASR 080615Z 00009KT 01/00 A3029 RMK A01 T00050002  RH  099%=      5-min Rain = 0
KASR 080620Z 00010G15KT 01/00 A3029 RMK A01 T00050002  RH  099%=      5-min Rain = 0
KASR 080625Z 01009KT 00/00 A3028 RMK A01 T00040001  RH  099%=      5-min Rain = 0
KASR 080630Z 01009KT 00/00 A3028 RMK A01 T00040001  RH  099%=      5-min Rain = 0.01
KASR 080635Z 01009KT 00/00 A3028 RMK A01 T00040001  RH  099%=      5-min Rain = 0
KASR 080640Z 01008G13KT 00/00 A3027 RMK A01 T00040001  RH  099%=      5-min Rain = 0
KASR 080645Z 02008KT 00/00 A3028 RMK A01 T00040000  RH  099%=      5-min Rain = 0
KASR 080650Z 01007KT 00/00 A3028 RMK A01 T00040001  RH  099%=      5-min Rain = 0.01
KASR 080655Z 01007KT 00/00 A3028 RMK A01 T00040001  RH  099%=      5-min Rain = 0
KASR 080700Z 01007KT 00/00 A3028 RMK A01 T00040001  RH  099%=      5-min Rain = 0
KASR 080705Z 35007KT 00/00 A3028 RMK A01 T00040001  RH  099%=      5-min Rain = 0.01
KASR 080710Z 36008KT 01/00 A3029 RMK A01 T00050001  RH  099%=      5-min Rain = 0
KASR 080715Z 00009KT 01/00 A3029 RMK A01 T00050001  RH  099%=      5-min Rain = 0.01
KASR 080720Z 36008KT 01/00 A3029 RMK A01 T00050001  RH  099%=      5-min Rain = 0
KASR 080725Z 36009KT 01/00 A3029 RMK A01 T00050001  RH  099%=      5-min Rain = 0.01
KASR 080730Z 00009KT 00/00 A3029 RMK A01 T00040001  RH  099%=      5-min Rain = 0
KASR 080735Z 00008KT 00/00 A3029 RMK A01 T00040001  RH  098%=      5-min Rain = 0.01
KASR 080740Z 36007KT 01/00 A303 RMK A01 T00050001  RH  099%=      5-min Rain = 0.01
KASR 080745Z 35007KT 01/00 A303 RMK A01 T00050002  RH  099%=      5-min Rain = 0
KASR 080750Z 35007KT 01/00 A303 RMK A01 T00050002  RH  099%=      5-min Rain = 0
KASR 080755Z 35007KT 01/00 A3029 RMK A01 T00050002  RH  099%=      5-min Rain = 0.01
KASR 080800Z 00009KT 01/00 A3029 RMK A01 T00050002  RH  099%=      5-min Rain = 0.01
KASR 080805Z 00009KT 01/00 A3028 RMK A01 T00050002  RH  099%=      5-min Rain = 0.01
KASR 080810Z 00009KT 00/00 A3028 RMK A01 T00040001  RH  099%=      5-min Rain = 0
KASR 080815Z 01007KT 00/00 A3028 RMK A01 T00040001  RH  099%=      5-min Rain = 0.01
KASR 080820Z 01006KT 00/00 A3028 RMK A01 T00040002  RH  099%=      5-min Rain = 0
KASR 080825Z 01007KT 00/00 A3028 RMK A01 T00040002  RH  099%=      5-min Rain = 0
KASR 080830Z 01009KT 00/00 A3028 RMK A01 T00040002  RH  099%=      5-min Rain = 0
KASR 080835Z 01007KT 01/00 A3027 RMK A01 T00050002  RH  099%=      5-min Rain = 0
KASR 080840Z 01009KT 01/00 A3027 RMK A01 T00050002  RH  099%=      5-min Rain = 0
KASR 080845Z 02009G14KT 00/00 A3027 RMK A01 T00040002  RH  099%=      5-min Rain = 0
KASR 080850Z 02009KT 00/00 A3027 RMK A01 T00040001  RH  099%=      5-min Rain = 0
KASR 080855Z 01008KT 00/00 A3027 RMK A01 T00040001  RH  099%=      5-min Rain = 0.01
KASR 080900Z 01008KT 01/00 A3027 RMK A01 T00050002  RH  099%=      5-min Rain = 0
KASR 080905Z 01008KT 01/00 A3027 RMK A01 T00050002  RH  099%=      5-min Rain = 0
KASR 080910Z 00008KT 00/00 A3027 RMK A01 T00040001  RH  099%=      5-min Rain = 0.01
KASR 080915Z 01009KT 00/00 A3027 RMK A01 T00040001  RH  099%=      5-min Rain = 0.01
KASR 080920Z 01008KT 00/00 A3027 RMK A01 T00040000  RH  099%=      5-min Rain = 0
KASR 080925Z 00010KT 00/00 A3027 RMK A01 T00040000  RH  099%=      5-min Rain = 0
KASR 080930Z 01010KT 00/00 A3027 RMK A01 T00040000  RH  099%=      5-min Rain = 0
KASR 080935Z 01008KT 00/00 A3027 RMK A01 T00040000  RH  099%=      5-min Rain = 0
KASR 080940Z 00010KT 00/00 A3027 RMK A01 T00040000  RH  099%=      5-min Rain = 0
KASR 080945Z 00009KT 00/00 A3027 RMK A01 T00040000  RH  099%=      5-min Rain = 0.01
KASR 080950Z 00009KT 00/00 A3027 RMK A01 T00040000  RH  099%=      5-min Rain = 0
KASR 080955Z 01009KT 00/00 A3026 RMK A01 T00040000  RH  099%=      5-min Rain = 0
KASR 081000Z 01009G14KT 00/00 A3026 RMK A01 T00040000  RH  099%=      5-min Rain = 0
KASR 081005Z 01009KT 00/00 A3026 RMK A01 T00040000  RH  099%=      5-min Rain = 0
KASR 081010Z 01008KT 00/00 A3026 RMK A01 T00040000  RH  099%=      5-min Rain = 0
KASR 081015Z 01008KT 00/00 A3026 RMK A01 T00040001  RH  099%=      5-min Rain = 0
KASR 081020Z 01011KT 01/00 A3026 RMK A01 T00050001  RH  099%=      5-min Rain = 0
KASR 081025Z 01010KT 00/00 A3026 RMK A01 T00040001  RH  099%=      5-min Rain = 0
KASR 081030Z 01011KT 01/00 A3026 RMK A01 T00050001  RH  098%=      5-min Rain = 0
KASR 081035Z 01010KT 01/00 A3025 RMK A01 T00050001  RH  098%=      5-min Rain = 0
KASR 081040Z 01010G15KT 01/00 A3025 RMK A01 T00050001  RH  098%=      5-min Rain = 0
KASR 081045Z 00010KT 01/00 A3026 RMK A01 T00050001  RH  098%=      5-min Rain = 0
KASR 081050Z 01009KT 01/00 A3026 RMK A01 T00050001  RH  098%=      5-min Rain = 0
KASR 081055Z 00011KT 01/00 A3026 RMK A01 T00050001  RH  098%=      5-min Rain = 0.01
KASR 081100Z 01009KT 00/00 A3026 RMK A01 T00040000  RH  098%=      5-min Rain = 0
KASR 081105Z 01011KT 00/00 A3026 RMK A01 T000400-0  RH  098%=      5-min Rain = 0
KASR 081110Z 01008KT 00/00 A3026 RMK A01 T000400-0  RH  098%=      5-min Rain = 0.01
KASR 081115Z 01009KT 00/M00 A3026 RMK A01 T00031001  RH  098%=      5-min Rain = 0
KASR 081120Z 01007KT 00/M00 A3026 RMK A01 T00031002  RH  098%=      5-min Rain = 0
KASR 081125Z 36007KT 00/M00 A3026 RMK A01 T00021002  RH  098%=      5-min Rain = 0.01
KASR 081130Z 36007KT 00/M00 A3027 RMK A01 T00011002  RH  099%=      5-min Rain = 0
KASR 081135Z 36008KT 00/M00 A3027 RMK A01 T00011003  RH  099%=      5-min Rain = 0
KASR 081140Z 01008KT 00/00 A3027 RMK A01 T000000-3  RH  099%=      5-min Rain = 0
KASR 081145Z 00008KT M00/M00 A3027 RMK A01 T10011004  RH  099%=      5-min Rain = 0
KASR 081150Z 00007KT M00/M00 A3027 RMK A01 T10011004  RH  099%=      5-min Rain = 0
KASR 081155Z 01007KT M00/M00 A3028 RMK A01 T10021004  RH  099%=      5-min Rain = 0
KASR 081200Z 00006KT M00/M01 A3028 RMK A01 T10021005  RH  099%=      5-min Rain = 0
KASR 081205Z 00007KT M00/M00 A3028 RMK A01 T10021004  RH  099%=      5-min Rain = 0
KASR 081210Z 36006KT M00/M01 A3028 RMK A01 T10021005  RH  100%=      5-min Rain = 0
KASR 081215Z 00008KT M00/M01 A3028 RMK A01 T10031005  RH  100%=      5-min Rain = 0
KASR 081220Z 01008KT M00/M01 A3028 RMK A01 T10031005  RH  100%=      5-min Rain = 0
KASR 081225Z 01009KT M00/M01 A3028 RMK A01 T10041005  RH  100%=      5-min Rain = 0
KASR 081230Z 01009KT M00/M01 A3028 RMK A01 T10041006  RH  100%=      5-min Rain = 0
KASR 081235Z 01007KT M00/M01 A3028 RMK A01 T10041006  RH  100%=      5-min Rain = 0
KASR 081240Z 01006KT M00/M01 A3029 RMK A01 T10041006  RH  100%=      5-min Rain = 0
KASR 081245Z 00006KT M00/M01 A3029 RMK A01 T10041006  RH  100%=      5-min Rain = 0
KASR 081250Z 00007KT M00/M01 A3029 RMK A01 T10041006  RH  100%=      5-min Rain = 0
KASR 081255Z 00006KT M01/M01 A3029 RMK A01 T10051006  RH  100%=      5-min Rain = 0
KASR 081300Z 00005KT M01/M01 A3029 RMK A01 T10051006  RH  100%=      5-min Rain = 0
KASR 081305Z 35005KT M00/M01 A3029 RMK A01 T10041006  RH  100%=      5-min Rain = 0
KASR 081310Z 35008G13KT M01/M01 A3029 RMK A01 T10051006  RH  100%=      5-min Rain = 0
KASR 081315Z 36010KT M01/M01 A3029 RMK A01 T10061007  RH  100%=      5-min Rain = 0
KASR 081320Z 00009KT M01/M01 A303 RMK A01 T10061008  RH  100%=      5-min Rain = 0
KASR 081325Z 36008KT M01/M01 A303 RMK A01 T10071008  RH  100%=      5-min Rain = 0
KASR 081330Z 00008KT M01/M01 A303 RMK A01 T10071008  RH  100%=      5-min Rain = 0
KASR 081335Z 36006KT M01/M01 A303 RMK A01 T10071008  RH  100%=      5-min Rain = 0
KASR 081340Z 35007KT M01/M01 A303 RMK A01 T10071008  RH  100%=      5-min Rain = 0
KASR 081345Z 35009KT M01/M01 A303 RMK A01 T10071009  RH  100%=      5-min Rain = 0
KASR 081350Z 35008KT M01/M01 A3031 RMK A01 T10081009  RH  100%=      5-min Rain = 0
KASR 081355Z 35009KT M01/M01 A3031 RMK A01 T10081009  RH  100%=      5-min Rain = 0
KASR 081400Z 35009KT M01/M01 A3031 RMK A01 T10081010  RH  100%=      5-min Rain = 0
KASR 081405Z 35006KT M01/M01 A3031 RMK A01 T10091010  RH  100%=      5-min Rain = 0
KASR 081410Z 34007KT M01/M01 A3032 RMK A01 T10091010  RH  100%=      5-min Rain = 0
KASR 081415Z 35009KT M01/M01 A3032 RMK A01 T10091010  RH  100%=      5-min Rain = 0
KASR 081420Z 35009KT M01/M01 A3032 RMK A01 T10091011  RH  100%=      5-min Rain = 0
KASR 081425Z 35008KT M01/M01 A3032 RMK A01 T10091011  RH  100%=      5-min Rain = 0
KASR 081430Z 35008KT M01/M01 A3032 RMK A01 T10091011  RH  100%=      5-min Rain = 0
KASR 081435Z 34007KT M01/M01 A3032 RMK A01 T10091011  RH  100%=      5-min Rain = 0
KASR 081440Z 34007KT M01/M01 A3033 RMK A01 T10091010  RH  100%=      5-min Rain = 0
KASR 081445Z 34007KT M01/M01 A3033 RMK A01 T10091011  RH  100%=      5-min Rain = 0
KASR 081450Z 34008KT M01/M01 A3033 RMK A01 T10091011  RH  100%=      5-min Rain = 0
KASR 081455Z 34008KT M01/M01 A3033 RMK A01 T10091011  RH  100%=      5-min Rain = 0
KASR 081500Z 34008KT M01/M01 A3033 RMK A01 T10091011  RH  100%=      5-min Rain = 0
KASR 081505Z 34007KT M01/M01 A3033 RMK A01 T10091011  RH  100%=      5-min Rain = 0
KASR 081510Z 34009KT M01/M01 A3033 RMK A01 T10091011  RH  100%=      5-min Rain = 0
KASR 081515Z 35009KT M01/M01 A3033 RMK A01 T10101011  RH  100%=      5-min Rain = 0
KASR 081520Z 35009KT M01/M01 A3033 RMK A01 T10101011  RH  100%=      5-min Rain = 0
KASR 081525Z 35008KT M01/M01 A3034 RMK A01 T10101011  RH  100%=      5-min Rain = 0
KASR 081530Z 35009KT M01/M01 A3034 RMK A01 T10091011  RH  100%=      5-min Rain = 0
KASR 081535Z 35009KT M01/M01 A3034 RMK A01 T10091011  RH  100%=      5-min Rain = 0
KASR 081540Z 34007KT M01/M01 A3034 RMK A01 T10091010  RH  100%=      5-min Rain = 0
KASR 081545Z 34009KT M01/M01 A3034 RMK A01 T10091010  RH  100%=      5-min Rain = 0
KASR 081550Z 34009KT M01/M01 A3034 RMK A01 T10091010  RH  100%=      5-min Rain = 0
KASR 081555Z 34008KT M01/M01 A3034 RMK A01 T10091010  RH  100%=      5-min Rain = 0
KASR 081600Z 34010KT M01/M01 A3034 RMK A01 T10091011  RH  100%=      5-min Rain = 0
KASR 081605Z 34010KT M01/M01 A3034 RMK A01 T10101011  RH  100%=      5-min Rain = 0
KASR 081610Z 34008KT M01/M01 A3034 RMK A01 T10091011  RH  100%=      5-min Rain = 0
KASR 081615Z 34009KT M01/M01 A3034 RMK A01 T10101011  RH  100%=      5-min Rain = 0
KASR 081620Z 34012KT M01/M01 A3035 RMK A01 T10111012  RH  100%=      5-min Rain = 0
KASR 081625Z 34010KT M01/M01 A3035 RMK A01 T10111013  RH  100%=      5-min Rain = 0
KASR 081630Z 34010KT M01/M01 A3035 RMK A01 T10111013  RH  100%=      5-min Rain = 0
KASR 081635Z 34011KT M01/M01 A3035 RMK A01 T10111013  RH  100%=      5-min Rain = 0
KASR 081640Z 34012KT M01/M01 A3035 RMK A01 T10131014  RH  100%=      5-min Rain = 0
KASR 081645Z 34010KT M01/M01 A3035 RMK A01 T10131014  RH  100%=      5-min Rain = 0
KASR 081650Z 34011KT M01/M01 A3035 RMK A01 T10131014  RH  100%=      5-min Rain = 0
KASR 081655Z 34010KT M01/M01 A3035 RMK A01 T10121013  RH  100%=      5-min Rain = 0
KASR 081700Z 34010G15KT M01/M01 A3035 RMK A01 T10121013  RH  100%=      5-min Rain = 0
KASR 081705Z 34011KT M01/M01 A3035 RMK A01 T10121014  RH  100%=      5-min Rain = 0
KASR 081710Z 33010KT M01/M01 A3035 RMK A01 T10121013  RH  100%=      5-min Rain = 0
KASR 081715Z 34009KT M01/M01 A3035 RMK A01 T10111013  RH  100%=      5-min Rain = 0
KASR 081720Z 34010KT M01/M01 A3035 RMK A01 T10111013  RH  100%=      5-min Rain = 0
KASR 081725Z 34012KT M01/M01 A3035 RMK A01 T10121014  RH  100%=      5-min Rain = 0
KASR 081730Z 34012KT M01/M02 A3034 RMK A01 T10131015  RH  100%=      5-min Rain = 0
KASR 081735Z 34013KT M01/M02 A3034 RMK A01 T10141015  RH  100%=      5-min Rain = 0
KASR 081740Z 34012KT M01/M02 A3034 RMK A01 T10131015  RH  100%=      5-min Rain = 0
KASR 081745Z 34012KT M01/M02 A3034 RMK A01 T10131015  RH  100%=      5-min Rain = 0
KASR 081750Z 33012KT M01/M01 A3034 RMK A01 T10131014  RH  100%=      5-min Rain = 0
KASR 081755Z 33012KT M01/M01 A3034 RMK A01 T10121014  RH  100%=      5-min Rain = 0
KASR 081800Z 33011KT M01/M01 A3034 RMK A01 T10121014  RH  100%=      5-min Rain = 0
KASR 081805Z 33011KT M01/M01 A3033 RMK A01 T10121014  RH  100%=      5-min Rain = 0
KASR 081810Z 33011KT M01/M01 A3033 RMK A01 T10121013  RH  100%=      5-min Rain = 0
KASR 081815Z 34012KT M01/M01 A3033 RMK A01 T10111013  RH  100%=      5-min Rain = 0
KASR 081820Z 34013KT M01/M01 A3033 RMK A01 T10111013  RH  100%=      5-min Rain = 0
KASR 081825Z 34012KT M01/M01 A3032 RMK A01 T10111012  RH  100%=      5-min Rain = 0
KASR 081830Z 34012KT M01/M01 A3032 RMK A01 T10101011  RH  100%=      5-min Rain = 0
KASR 081835Z 34012KT M01/M01 A3032 RMK A01 T10091011  RH  100%=      5-min Rain = 0
KASR 081840Z 34013KT M01/M01 A3032 RMK A01 T10091011  RH  100%=      5-min Rain = 0
KASR 081845Z 34012KT M01/M01 A3032 RMK A01 T10081011  RH  099%=      5-min Rain = 0
KASR 081850Z 33012G18KT M01/M01 A3031 RMK A01 T10071010  RH  099%=      5-min Rain = 0
KASR 081855Z 34013KT M01/M01 A3031 RMK A01 T10091012  RH  099%=      5-min Rain = 0
KASR 081900Z 34012KT M01/M01 A3031 RMK A01 T10081011  RH  099%=      5-min Rain = 0
KASR 081905Z 33013KT M01/M01 A3031 RMK A01 T10071011  RH  098%=      5-min Rain = 0
KASR 081910Z 34011KT M01/M01 A3031 RMK A01 T10071011  RH  098%=      5-min Rain = 0
KASR 081915Z 33012KT M01/M01 A3031 RMK A01 T10071011  RH  098%=      5-min Rain = 0
KASR 081920Z 33012KT M01/M01 A3031 RMK A01 T10071012  RH  097%=      5-min Rain = 0
KASR 081925Z 33011KT M01/M01 A3031 RMK A01 T10071012  RH  098%=      5-min Rain = 0
KASR 081930Z 34011KT M01/M01 A3031 RMK A01 T10071011  RH  098%=      5-min Rain = 0
KASR 081935Z 34011KT M01/M01 A303 RMK A01 T10061011  RH  098%=      5-min Rain = 0
KASR 081940Z 34010KT M01/M01 A303 RMK A01 T10061012  RH  097%=      5-min Rain = 0
KASR 081945Z 34011KT M01/M01 A303 RMK A01 T10061013  RH  096%=      5-min Rain = 0
KASR 081950Z 34011KT M01/M02 A303 RMK A01 T10061015  RH  094%=      5-min Rain = 0
KASR 081955Z 34010KT M01/M02 A303 RMK A01 T10061017  RH  093%=      5-min Rain = 0
KASR 082000Z 34009KT M01/M02 A3029 RMK A01 T10051016  RH  093%=      5-min Rain = 0
KASR 082005Z 34009KT M00/M02 A3029 RMK A01 T10041016  RH  093%=      5-min Rain = 0
KASR 082010Z 34008KT M00/M02 A3029 RMK A01 T10041016  RH  092%=      5-min Rain = 0
KASR 082015Z 33007KT M00/M02 A3029 RMK A01 T10021015  RH  092%=      5-min Rain = 0.01
KASR 082020Z 33007KT M00/M02 A3029 RMK A01 T10021016  RH  091%=      5-min Rain = 0
KASR 082025Z 34007KT M00/M02 A3029 RMK A01 T10011017  RH  091%=      5-min Rain = 0
KASR 082030Z 33007KT M00/M02 A3029 RMK A01 T10011016  RH  090%=      5-min Rain = 0
KASR 082035Z 33007KT 00/02 A3029 RMK A01 T00-00-17  RH  090%=      5-min Rain = 0
KASR 082040Z 33007KT 00/02 A3029 RMK A01 T00000-17  RH  089%=      5-min Rain = 0
KASR 082045Z 33007KT 00/M02 A3029 RMK A01 T00011018  RH  088%=      5-min Rain = 0
KASR 082050Z 32008KT 00/M02 A3029 RMK A01 T00011019  RH  087%=      5-min Rain = 0
KASR 082055Z 33008KT 00/M02 A3029 RMK A01 T00021021  RH  086%=      5-min Rain = 0
KASR 082100Z 33008KT 00/M02 A3029 RMK A01 T00021022  RH  085%=      5-min Rain = 0
KASR 082105Z 33007KT 00/M02 A3028 RMK A01 T00031023  RH  084%=      5-min Rain = 0
KASR 082110Z 33007KT 00/M02 A3028 RMK A01 T00041022  RH  084%=      5-min Rain = 0
KASR 082115Z 32007KT 00/M02 A3029 RMK A01 T00041023  RH  083%=      5-min Rain = 0
KASR 082120Z 31008KT 01/M02 A3029 RMK A01 T00051024  RH  082%=      5-min Rain = 0
KASR 082125Z 31007KT 01/M02 A3029 RMK A01 T00051024  RH  082%=      5-min Rain = 0
KASR 082130Z 31006KT 01/M02 A3029 RMK A01 T00051023  RH  083%=      5-min Rain = 0
KASR 082135Z 31006KT 01/M02 A3029 RMK A01 T00051023  RH  082%=      5-min Rain = 0
KASR 082140Z 31005KT 01/M02 A3028 RMK A01 T00061023  RH  082%=      5-min Rain = 0
KASR 082145Z 31005KT 01/M02 A3028 RMK A01 T00061023  RH  082%=      5-min Rain = 0
KASR 082150Z 31006KT 01/M02 A3028 RMK A01 T00061023  RH  082%=      5-min Rain = 0
KASR 082155Z 31006KT 01/M02 A3028 RMK A01 T00071023  RH  081%=      5-min Rain = 0
KASR 082200Z 31006KT 01/M02 A3028 RMK A01 T00071024  RH  081%=      5-min Rain = 0
KASR 082205Z 31007KT 01/M02 A3028 RMK A01 T00071024  RH  080%=      5-min Rain = 0
KASR 082210Z 31006KT 01/M02 A3028 RMK A01 T00071024  RH  080%=      5-min Rain = 0
KASR 082215Z 31006KT 01/M03 A3028 RMK A01 T00071025  RH  080%=      5-min Rain = 0
KASR 082220Z 30006KT 01/M03 A3028 RMK A01 T00071025  RH  080%=      5-min Rain = 0
KASR 082225Z 30006KT 01/M03 A3028 RMK A01 T00071025  RH  080%=      5-min Rain = 0
KASR 082230Z 30005KT 01/M02 A3028 RMK A01 T00081023  RH  081%=      5-min Rain = 0
KASR 082235Z 30005KT 01/M02 A3028 RMK A01 T00081024  RH  081%=      5-min Rain = 0
KASR 082240Z 30005KT 01/M03 A3028 RMK A01 T00081025  RH  080%=      5-min Rain = 0
KASR 082245Z 30005KT 01/M02 A3028 RMK A01 T00081024  RH  080%=      5-min Rain = 0
KASR 082250Z 30006KT 01/M03 A3028 RMK A01 T00081025  RH  080%=      5-min Rain = 0
KASR 082255Z 30006KT 01/M03 A3028 RMK A01 T00071025  RH  080%=      5-min Rain = 0
KASR 082300Z 30005KT 01/M03 A3028 RMK A01 T00061025  RH  081%=      5-min Rain = 0
KASR 082305Z 30005KT 01/M03 A3028 RMK A01 T00051025  RH  081%=      5-min Rain = 0
KASR 082310Z 30004KT 00/M03 A3028 RMK A01 T00041026  RH  081%=      5-min Rain = 0
KASR 082315Z 29004KT 00/M03 A3028 RMK A01 T00031026  RH  082%=      5-min Rain = 0
KASR 082320Z 29004KT 00/M03 A3029 RMK A01 T00011027  RH  082%=      5-min Rain = 0
KASR 082325Z 29004KT 00/03 A3029 RMK A01 T00000-27  RH  083%=      5-min Rain = 0
KASR 082330Z 28004KT M00/M03 A3029 RMK A01 T10021028  RH  084%=      5-min Rain = 0
KASR 082335Z 28004KT M01/M03 A3029 RMK A01 T10051028  RH  086%=      5-min Rain = 0
KASR 082340Z 28005KT M01/M03 A3029 RMK A01 T10081029  RH  087%=      5-min Rain = 0
KASR 082345Z 28004KT M01/M03 A3029 RMK A01 T10101029  RH  088%=      5-min Rain = 0
KASR 082350Z 28005KT M01/M03 A3029 RMK A01 T10101030  RH  088%=      5-min Rain = 0
KASR 082355Z 28005KT M01/M03 A3028 RMK A01 T10111031  RH  088%=      5-min Rain = 0
KASR 090000Z 28005KT M01/M03 A3029 RMK A01 T10121032  RH  087%=      5-min Rain = 0
KASR 090005Z 28005KT M01/M03 A3029 RMK A01 T10131033  RH  087%=      5-min Rain = 0
KASR 090010Z 28005KT M01/M03 A3029 RMK A01 T10141033  RH  088%=      5-min Rain = 0
KASR 090015Z 28004KT M01/M03 A3029 RMK A01 T10141034  RH  087%=      5-min Rain = 0
KASR 090020Z 27003KT M02/M04 A3029 RMK A01 T10151035  RH  087%=      5-min Rain = 0
KASR 090025Z 26003KT M02/M04 A3029 RMK A01 T10151035  RH  088%=      5-min Rain = 0
KASR 090030Z 26002KT M02/M04 A3029 RMK A01 T10161035  RH  088%=      5-min Rain = 0
KASR 090035Z 26003KT M02/M03 A3029 RMK A01 T10181034  RH  089%=      5-min Rain = 0
KASR 090040Z 26003KT M02/M03 A3029 RMK A01 T10171032  RH  090%=      5-min Rain = 0
KASR 090045Z 26004KT M02/M03 A3029 RMK A01 T10161031  RH  091%=      5-min Rain = 0
KASR 090050Z 26005KT M02/M03 A3029 RMK A01 T10171031  RH  091%=      5-min Rain = 0
KASR 090055Z 26005KT M02/M03 A3029 RMK A01 T10201033  RH  092%=      5-min Rain = 0
KASR 090100Z 26005KT M02/M03 A303 RMK A01 T10211033  RH  093%=      5-min Rain = 0
KASR 090105Z 26004KT M02/M03 A303 RMK A01 T10221032  RH  094%=      5-min Rain = 0
KASR 090110Z 26004KT M02/M03 A303 RMK A01 T10211031  RH  094%=      5-min Rain = 0
KASR 090115Z 26004KT M02/M03 A303 RMK A01 T10221032  RH  094%=      5-min Rain = 0
KASR 090120Z 26004KT M02/M03 A303 RMK A01 T10241034  RH  094%=      5-min Rain = 0
KASR 090125Z 25004KT M02/M03 A303 RMK A01 T10241033  RH  095%=      5-min Rain = 0
KASR 090130Z 24004KT M02/M03 A303 RMK A01 T10241032  RH  095%=      5-min Rain = 0
KASR 090135Z 24003KT M03/M04 A3031 RMK A01 T10261036  RH  094%=      5-min Rain = 0
KASR 090140Z 24003KT M03/M04 A3031 RMK A01 T10281038  RH  094%=      5-min Rain = 0
KASR 090145Z 25005KT M03/M04 A3031 RMK A01 T10301038  RH  095%=      5-min Rain = 0
KASR 090150Z 25005KT M03/M04 A3031 RMK A01 T10311040  RH  095%=      5-min Rain = 0
KASR 090155Z 24004KT M03/M04 A3032 RMK A01 T10341042  RH  095%=      5-min Rain = 0
KASR 090200Z 24004KT M03/M04 A3032 RMK A01 T10321039  RH  096%=      5-min Rain = 0
KASR 090205Z 25004KT M03/M04 A3031 RMK A01 T10321039  RH  096%=      5-min Rain = 0
KASR 090210Z 26003KT M03/M04 A3031 RMK A01 T10321040  RH  095%=      5-min Rain = 0
KASR 090215Z 25003KT M03/M04 A3031 RMK A01 T10331041  RH  095%=      5-min Rain = 0
KASR 090220Z 24003KT M03/M04 A3031 RMK A01 T10341042  RH  095%=      5-min Rain = 0
KASR 090225Z 25003KT M04/M04 A3031 RMK A01 T10351043  RH  095%=      5-min Rain = 0
KASR 090230Z 25002KT M04/M04 A3031 RMK A01 T10361043  RH  096%=      5-min Rain = 0
KASR 090235Z 25003KT M03/M04 A3031 RMK A01 T10341041  RH  096%=      5-min Rain = 0
KASR 090240Z 25004KT M03/M04 A3031 RMK A01 T10321039  RH  096%=      5-min Rain = 0
KASR 090245Z 25004KT M03/M04 A3031 RMK A01 T10321040  RH  095%=      5-min Rain = 0
KASR 090250Z 25004KT M03/M04 A3031 RMK A01 T10321041  RH  095%=      5-min Rain = 0
KASR 090255Z 25004KT M03/M04 A3031 RMK A01 T10321041  RH  095%=      5-min Rain = 0
KASR 090300Z 25004KT M03/M04 A3031 RMK A01 T10311041  RH  094%=      5-min Rain = 0
KASR 090305Z 25004KT M03/M04 A3031 RMK A01 T10331044  RH  093%=      5-min Rain = 0
KASR 090310Z 24003KT M04/M05 A3031 RMK A01 T10371048  RH  093%=      5-min Rain = 0
KASR 090315Z 24003KT M04/M05 A3031 RMK A01 T10381048  RH  094%=      5-min Rain = 0
KASR 090320Z 24003KT M04/M05 A3032 RMK A01 T10371046  RH  094%=      5-min Rain = 0
KASR 090325Z 23003KT M03/M04 A3032 RMK A01 T10341043  RH  094%=      5-min Rain = 0
KASR 090330Z 23003KT M04/M04 A3032 RMK A01 T10351044  RH  094%=      5-min Rain = 0
KASR 090335Z 23003KT M03/M04 A3032 RMK A01 T10341044  RH  094%=      5-min Rain = 0
KASR 090340Z 23003KT M04/M05 A3032 RMK A01 T10351046  RH  093%=      5-min Rain = 0
KASR 090345Z 23003KT M04/M05 A3032 RMK A01 T10361047  RH  093%=      5-min Rain = 0
KASR 090350Z 23004KT M04/M05 A3032 RMK A01 T10371047  RH  094%=      5-min Rain = 0
KASR 090355Z 24003KT M04/M05 A3032 RMK A01 T10361046  RH  094%=      5-min Rain = 0
KASR 090400Z 25003KT M04/M05 A3032 RMK A01 T10361046  RH  094%=      5-min Rain = 0
KASR 090405Z 25003KT M04/M05 A3032 RMK A01 T10361046  RH  094%=      5-min Rain = 0
KASR 090410Z 25003KT M04/M05 A3032 RMK A01 T10371046  RH  094%=      5-min Rain = 0
KASR 090415Z 25003KT M04/M05 A3032 RMK A01 T10361045  RH  095%=      5-min Rain = 0
KASR 090420Z 25003KT M04/M04 A3033 RMK A01 T10361044  RH  095%=      5-min Rain = 0
KASR 090425Z 25003KT M04/M05 A3033 RMK A01 T10381047  RH  095%=      5-min Rain = 0
KASR 090430Z 26003KT M04/M05 A3033 RMK A01 T10401048  RH  095%=      5-min Rain = 0
KASR 090435Z 25003KT M04/M05 A3033 RMK A01 T10391047  RH  095%=      5-min Rain = 0
KASR 090440Z 25003KT M04/M05 A3033 RMK A01 T10381045  RH  096%=      5-min Rain = 0
KASR 090445Z 26003KT M04/M05 A3033 RMK A01 T10381045  RH  096%=      5-min Rain = 0
KASR 090450Z 26003KT M04/M05 A3033 RMK A01 T10411048  RH  096%=      5-min Rain = 0
KASR 090455Z 27003KT M04/M05 A3033 RMK A01 T10401047  RH  096%=      5-min Rain = 0
KASR 090500Z 27003KT M04/M04 A3033 RMK A01 T10381044  RH  097%=      5-min Rain = 0
KASR 090505Z 27003KT M04/M05 A3033 RMK A01 T10391045  RH  096%=      5-min Rain = 0
KASR 090510Z 26002KT M04/M05 A3033 RMK A01 T10411047  RH  096%=      5-min Rain = 0
KASR 090515Z 25003KT M04/M05 A3033 RMK A01 T10411047  RH  096%=      5-min Rain = 0
KASR 090520Z 25003KT M04/M05 A3033 RMK A01 T10401046  RH  096%=      5-min Rain = 0
KASR 090525Z 25003KT M04/M05 A3033 RMK A01 T10411048  RH  096%=      5-min Rain = 0
KASR 090530Z 26003KT M04/M05 A3033 RMK A01 T10401047  RH  096%=      5-min Rain = 0
KASR 090535Z 26003KT M04/M04 A3033 RMK A01 T10371044  RH  096%=      5-min Rain = 0
KASR 090540Z 26003KT M04/M04 A3033 RMK A01 T10361044  RH  095%=      5-min Rain = 0
KASR 090545Z 27003KT M04/M05 A3033 RMK A01 T10371045  RH  095%=      5-min Rain = 0
KASR 090550Z 26003KT M04/M05 A3033 RMK A01 T10381046  RH  095%=      5-min Rain = 0
KASR 090555Z 27003KT M04/M05 A3033 RMK A01 T10401048  RH  095%=      5-min Rain = 0

Page generated in 0.0096 seconds.